sensor_id;sensor_type;location;lat;lon;timestamp;pressure;altitude;pressure_sealevel;temperature;humidity
21760;BME280;11041;50.854;20.580;2023-04-30T00:00:01;98517.44;;;7.78;94.65
21760;BME280;11041;50.854;20.580;2023-04-30T00:02:28;98511.69;;;7.79;94.77
21760;BME280;11041;50.854;20.580;2023-04-30T00:04:54;98523.13;;;7.95;94.72
21760;BME280;11041;50.854;20.580;2023-04-30T00:07:21;98487.66;;;7.76;94.17
21760;BME280;11041;50.854;20.580;2023-04-30T00:09:47;98494.03;;;7.85;94.02
21760;BME280;11041;50.854;20.580;2023-04-30T00:12:14;98491.81;;;7.87;94.51
21760;BME280;11041;50.854;20.580;2023-04-30T00:14:41;98517.97;;;8.07;94.13
21760;BME280;11041;50.854;20.580;2023-04-30T00:17:07;98494.97;;;7.95;93.92
21760;BME280;11041;50.854;20.580;2023-04-30T00:19:34;98489.38;;;8.00;94.12
21760;BME280;11041;50.854;20.580;2023-04-30T00:22:00;98500.94;;;8.10;93.89
21760;BME280;11041;50.854;20.580;2023-04-30T00:24:27;98506.91;;;8.13;93.45
21760;BME280;11041;50.854;20.580;2023-04-30T00:26:54;98492.53;;;8.07;92.54
21760;BME280;11041;50.854;20.580;2023-04-30T00:29:21;98489.00;;;8.06;92.21
21760;BME280;11041;50.854;20.580;2023-04-30T00:31:47;98476.31;;;7.97;91.99
21760;BME280;11041;50.854;20.580;2023-04-30T00:34:14;98479.56;;;7.99;91.78
21760;BME280;11041;50.854;20.580;2023-04-30T00:36:40;98496.97;;;8.03;91.91
21760;BME280;11041;50.854;20.580;2023-04-30T00:39:07;98490.31;;;7.95;91.87
21760;BME280;11041;50.854;20.580;2023-04-30T00:41:37;98522.53;;;8.12;92.07
21760;BME280;11041;50.854;20.580;2023-04-30T00:44:04;98517.16;;;8.07;92.58
21760;BME280;11041;50.854;20.580;2023-04-30T00:46:31;98506.19;;;7.93;93.24
21760;BME280;11041;50.854;20.580;2023-04-30T00:48:58;98503.78;;;7.92;93.07
21760;BME280;11041;50.854;20.580;2023-04-30T00:51:28;98528.22;;;8.02;93.75
21760;BME280;11041;50.854;20.580;2023-04-30T00:53:55;98498.91;;;7.88;93.86
21760;BME280;11041;50.854;20.580;2023-04-30T00:56:22;98506.31;;;7.88;93.72
21760;BME280;11041;50.854;20.580;2023-04-30T00:58:49;98510.97;;;7.87;94.30
21760;BME280;11041;50.854;20.580;2023-04-30T01:01:20;98516.44;;;7.87;94.54
21760;BME280;11041;50.854;20.580;2023-04-30T01:03:46;98533.88;;;7.92;94.39
21760;BME280;11041;50.854;20.580;2023-04-30T01:06:13;98508.44;;;7.77;94.80
21760;BME280;11041;50.854;20.580;2023-04-30T01:08:39;98508.44;;;7.77;94.54
21760;BME280;11041;50.854;20.580;2023-04-30T01:16:43;98505.88;;;7.67;94.93
21760;BME280;11041;50.854;20.580;2023-04-30T01:19:45;98539.53;;;7.81;94.87
21760;BME280;11041;50.854;20.580;2023-04-30T01:28:37;98524.72;;;7.68;94.72
21760;BME280;11041;50.854;20.580;2023-04-30T01:31:12;98508.28;;;7.55;94.90
21760;BME280;11041;50.854;20.580;2023-04-30T01:33:39;98535.06;;;7.72;94.94
21760;BME280;11041;50.854;20.580;2023-04-30T01:48:21;98509.72;;;7.52;95.75
21760;BME280;11041;50.854;20.580;2023-04-30T01:53:57;98506.19;;;7.65;97.34
21760;BME280;11041;50.854;20.580;2023-04-30T01:56:44;98527.38;;;7.87;97.79
21760;BME280;11041;50.854;20.580;2023-04-30T01:59:13;98518.47;;;7.96;98.07
21760;BME280;11041;50.854;20.580;2023-04-30T02:01:41;98529.53;;;8.04;98.18
21760;BME280;11041;50.854;20.580;2023-04-30T02:04:07;98517.16;;;8.07;98.31
21760;BME280;11041;50.854;20.580;2023-04-30T02:06:34;98540.56;;;8.27;98.53
21760;BME280;11041;50.854;20.580;2023-04-30T02:09:00;98534.38;;;8.35;98.47
21760;BME280;11041;50.854;20.580;2023-04-30T02:11:32;98517.16;;;8.35;98.48
21760;BME280;11041;50.854;20.580;2023-04-30T02:13:58;98539.16;;;8.57;98.81
21760;BME280;11041;50.854;20.580;2023-04-30T02:16:25;98524.75;;;8.51;98.79
21760;BME280;11041;50.854;20.580;2023-04-30T02:18:51;98521.06;;;8.56;98.98
21760;BME280;11041;50.854;20.580;2023-04-30T02:21:18;98553.22;;;8.78;99.04
21760;BME280;11041;50.854;20.580;2023-04-30T02:23:44;98527.97;;;8.67;99.06
21760;BME280;11041;50.854;20.580;2023-04-30T02:26:11;98542.56;;;8.77;99.03
21760;BME280;11041;50.854;20.580;2023-04-30T02:28:37;98516.19;;;8.67;99.02
21760;BME280;11041;50.854;20.580;2023-04-30T02:31:04;98556.53;;;8.89;99.13
21760;BME280;11041;50.854;20.580;2023-04-30T02:33:31;98547.78;;;8.87;99.01
21760;BME280;11041;50.854;20.580;2023-04-30T02:35:59;98555.59;;;8.93;98.98
21760;BME280;11041;50.854;20.580;2023-04-30T02:38:26;98535.00;;;8.82;99.25
21760;BME280;11041;50.854;20.580;2023-04-30T02:40:52;98560.31;;;9.02;99.02
21760;BME280;11041;50.854;20.580;2023-04-30T02:43:19;98557.91;;;9.00;98.76
21760;BME280;11041;50.854;20.580;2023-04-30T02:45:45;98548.97;;;8.94;98.76
21760;BME280;11041;50.854;20.580;2023-04-30T02:48:12;98549.19;;;8.98;98.70
21760;BME280;11041;50.854;20.580;2023-04-30T02:50:39;98548.25;;;9.03;98.54
21760;BME280;11041;50.854;20.580;2023-04-30T02:53:05;98548.44;;;9.06;98.59
21760;BME280;11041;50.854;20.580;2023-04-30T02:55:32;98519.72;;;8.81;98.56
21760;BME280;11041;50.854;20.580;2023-04-30T02:57:58;98567.50;;;9.11;98.86
21760;BME280;11041;50.854;20.580;2023-04-30T03:00:25;98565.78;;;9.15;98.68
21760;BME280;11041;50.854;20.580;2023-04-30T03:02:51;98542.44;;;9.04;99.14
21760;BME280;11041;50.854;20.580;2023-04-30T03:05:18;98559.78;;;9.13;99.26
21760;BME280;11041;50.854;20.580;2023-04-30T03:07:44;98531.63;;;8.99;99.21
21760;BME280;11041;50.854;20.580;2023-04-30T03:10:11;98565.47;;;9.17;99.36
21760;BME280;11041;50.854;20.580;2023-04-30T03:12:37;98564.75;;;9.11;99.61
21760;BME280;11041;50.854;20.580;2023-04-30T03:15:04;98572.44;;;9.23;99.88
21760;BME280;11041;50.854;20.580;2023-04-30T03:17:31;98564.72;;;9.25;99.84
21760;BME280;11041;50.854;20.580;2023-04-30T03:19:58;98572.00;;;9.30;100.00
21760;BME280;11041;50.854;20.580;2023-04-30T03:22:24;98545.94;;;9.18;100.00
21760;BME280;11041;50.854;20.580;2023-04-30T03:24:51;98545.34;;;9.22;99.94
21760;BME280;11041;50.854;20.580;2023-04-30T03:27:18;98570.41;;;9.29;99.70
21760;BME280;11041;50.854;20.580;2023-04-30T03:29:44;98574.31;;;9.36;99.98
21760;BME280;11041;50.854;20.580;2023-04-30T03:32:11;98551.00;;;9.25;99.92
21760;BME280;11041;50.854;20.580;2023-04-30T03:34:37;98561.03;;;9.30;100.00
21760;BME280;11041;50.854;20.580;2023-04-30T03:37:04;98578.38;;;9.39;99.95
21760;BME280;11041;50.854;20.580;2023-04-30T03:39:30;98573.91;;;9.43;100.00
21760;BME280;11041;50.854;20.580;2023-04-30T03:41:57;98579.56;;;9.47;99.93
21760;BME280;11041;50.854;20.580;2023-04-30T03:44:23;98556.56;;;9.34;99.80
21760;BME280;11041;50.854;20.580;2023-04-30T03:46:50;98577.00;;;9.50;99.96
21760;BME280;11041;50.854;20.580;2023-04-30T03:49:16;98564.38;;;9.41;99.81
21760;BME280;11041;50.854;20.580;2023-04-30T03:51:43;98585.41;;;9.54;99.75
21760;BME280;11041;50.854;20.580;2023-04-30T03:54:09;98572.47;;;9.46;99.68
21760;BME280;11041;50.854;20.580;2023-04-30T03:56:36;98593.47;;;9.50;99.60
21760;BME280;11041;50.854;20.580;2023-04-30T03:59:04;98590.59;;;9.55;99.80
21760;BME280;11041;50.854;20.580;2023-04-30T04:01:31;98597.69;;;9.56;100.00
21760;BME280;11041;50.854;20.580;2023-04-30T04:03:58;98585.72;;;9.52;99.55
21760;BME280;11041;50.854;20.580;2023-04-30T04:06:24;98589.09;;;9.49;99.90
21760;BME280;11041;50.854;20.580;2023-04-30T04:08:52;98595.88;;;9.52;99.78
21760;BME280;11041;50.854;20.580;2023-04-30T04:11:18;98609.38;;;9.62;100.00
21760;BME280;11041;50.854;20.580;2023-04-30T04:13:45;98592.16;;;9.48;100.00
21760;BME280;11041;50.854;20.580;2023-04-30T04:16:11;98600.25;;;9.53;100.00
21760;BME280;11041;50.854;20.580;2023-04-30T04:18:38;98606.69;;;9.48;100.00
21760;BME280;11041;50.854;20.580;2023-04-30T04:21:04;98621.88;;;9.54;100.00
21760;BME280;11041;50.854;20.580;2023-04-30T04:23:32;98604.66;;;9.40;100.00
21760;BME280;11041;50.854;20.580;2023-04-30T04:25:58;98618.88;;;9.42;100.00
21760;BME280;11041;50.854;20.580;2023-04-30T04:28:25;98635.22;;;9.47;100.00
21760;BME280;11041;50.854;20.580;2023-04-30T04:30:52;98612.47;;;9.24;100.00
21760;BME280;11041;50.854;20.580;2023-04-30T04:33:18;98637.81;;;9.30;100.00
21760;BME280;11041;50.854;20.580;2023-04-30T04:35:45;98625.41;;;9.10;100.00
21760;BME280;11041;50.854;20.580;2023-04-30T04:38:12;98656.84;;;9.12;100.00
21760;BME280;11041;50.854;20.580;2023-04-30T04:40:39;98657.97;;;9.11;100.00
21760;BME280;11041;50.854;20.580;2023-04-30T04:43:06;98654.94;;;8.99;100.00
21760;BME280;11041;50.854;20.580;2023-04-30T04:45:33;98658.19;;;8.87;100.00
21760;BME280;11041;50.854;20.580;2023-04-30T04:48:01;98652.13;;;8.63;100.00
21760;BME280;11041;50.854;20.580;2023-04-30T04:50:27;98681.34;;;8.67;100.00
21760;BME280;11041;50.854;20.580;2023-04-30T04:52:54;98680.16;;;8.73;100.00
21760;BME280;11041;50.854;20.580;2023-04-30T04:55:20;98683.69;;;8.74;100.00
21760;BME280;11041;50.854;20.580;2023-04-30T04:57:47;98681.16;;;8.64;100.00
21760;BME280;11041;50.854;20.580;2023-04-30T05:00:13;98689.56;;;8.67;100.00
21760;BME280;11041;50.854;20.580;2023-04-30T05:02:42;98683.16;;;8.58;100.00
21760;BME280;11041;50.854;20.580;2023-04-30T05:05:08;98678.13;;;8.51;100.00
21760;BME280;11041;50.854;20.580;2023-04-30T05:07:36;98712.91;;;8.79;100.00
21760;BME280;11041;50.854;20.580;2023-04-30T05:10:02;98689.47;;;8.59;100.00
21760;BME280;11041;50.854;20.580;2023-04-30T05:12:29;98723.16;;;8.59;100.00
21760;BME280;11041;50.854;20.580;2023-04-30T05:14:55;98694.88;;;8.31;100.00
21760;BME280;11041;50.854;20.580;2023-04-30T05:17:22;98705.94;;;8.26;100.00
21760;BME280;11041;50.854;20.580;2023-04-30T05:19:48;98711.19;;;8.22;100.00
21760;BME280;11041;50.854;20.580;2023-04-30T05:22:16;98724.06;;;8.22;100.00
21760;BME280;11041;50.854;20.580;2023-04-30T05:24:42;98711.69;;;8.10;100.00
21760;BME280;11041;50.854;20.580;2023-04-30T05:27:09;98721.38;;;8.03;100.00
21760;BME280;11041;50.854;20.580;2023-04-30T05:29:35;98744.81;;;8.09;100.00
21760;BME280;11041;50.854;20.580;2023-04-30T05:32:02;98756.28;;;8.11;100.00
21760;BME280;11041;50.854;20.580;2023-04-30T05:34:28;98761.09;;;8.00;100.00
21760;BME280;11041;50.854;20.580;2023-04-30T05:36:55;98762.38;;;7.89;100.00
21760;BME280;11041;50.854;20.580;2023-04-30T05:39:21;98759.13;;;7.87;100.00
21760;BME280;11041;50.854;20.580;2023-04-30T05:41:48;98745.44;;;7.87;100.00
21760;BME280;11041;50.854;20.580;2023-04-30T05:44:14;98763.38;;;7.93;100.00
21760;BME280;11041;50.854;20.580;2023-04-30T05:46:41;98781.66;;;7.79;100.00
21760;BME280;11041;50.854;20.580;2023-04-30T05:49:07;98786.41;;;7.73;100.00
21760;BME280;11041;50.854;20.580;2023-04-30T05:51:34;98786.41;;;7.73;100.00
21760;BME280;11041;50.854;20.580;2023-04-30T05:54:01;98799.91;;;7.64;100.00
21760;BME280;11041;50.854;20.580;2023-04-30T05:56:27;98760.34;;;7.38;100.00
21760;BME280;11041;50.854;20.580;2023-04-30T05:58:54;98769.34;;;7.38;100.00
21760;BME280;11041;50.854;20.580;2023-04-30T06:01:20;98780.28;;;7.38;100.00
21760;BME280;11041;50.854;20.580;2023-04-30T06:03:48;98792.34;;;7.37;100.00
21760;BME280;11041;50.854;20.580;2023-04-30T06:06:15;98797.81;;;7.37;100.00
21760;BME280;11041;50.854;20.580;2023-04-30T06:08:41;98799.81;;;7.32;100.00
21760;BME280;11041;50.854;20.580;2023-04-30T06:11:11;98802.19;;;7.14;100.00
21760;BME280;11041;50.854;20.580;2023-04-30T06:13:39;98813.28;;;7.23;100.00
21760;BME280;11041;50.854;20.580;2023-04-30T06:16:07;98818.81;;;7.18;100.00
21760;BME280;11041;50.854;20.580;2023-04-30T06:18:33;98840.69;;;7.18;100.00
21760;BME280;11041;50.854;20.580;2023-04-30T06:21:00;98782.94;;;6.76;100.00
21760;BME280;11041;50.854;20.580;2023-04-30T06:23:26;98800.16;;;6.77;100.00
21760;BME280;11041;50.854;20.580;2023-04-30T06:25:53;98796.66;;;6.71;100.00
21760;BME280;11041;50.854;20.580;2023-04-30T06:28:19;98806.41;;;6.77;100.00
21760;BME280;11041;50.854;20.580;2023-04-30T06:30:46;98797.59;;;6.61;100.00
21760;BME280;11041;50.854;20.580;2023-04-30T06:33:13;98811.13;;;6.72;100.00
21760;BME280;11041;50.854;20.580;2023-04-30T06:35:39;98811.41;;;6.70;100.00
21760;BME280;11041;50.854;20.580;2023-04-30T06:38:06;98804.00;;;6.71;100.00
21760;BME280;11041;50.854;20.580;2023-04-30T06:40:33;98807.34;;;6.68;100.00
21760;BME280;11041;50.854;20.580;2023-04-30T06:43:00;98826.34;;;6.78;100.00
21760;BME280;11041;50.854;20.580;2023-04-30T06:45:26;98847.00;;;6.89;100.00
21760;BME280;11041;50.854;20.580;2023-04-30T06:47:54;98822.28;;;6.75;100.00
21760;BME280;11041;50.854;20.580;2023-04-30T06:50:21;98829.91;;;6.78;100.00
21760;BME280;11041;50.854;20.580;2023-04-30T06:52:47;98826.34;;;6.78;100.00
21760;BME280;11041;50.854;20.580;2023-04-30T06:55:14;98842.34;;;6.90;100.00
21760;BME280;11041;50.854;20.580;2023-04-30T06:57:40;98855.09;;;6.99;100.00
21760;BME280;11041;50.854;20.580;2023-04-30T07:00:07;98855.88;;;7.05;100.00
21760;BME280;11041;50.854;20.580;2023-04-30T07:02:34;98856.38;;;7.07;100.00
21760;BME280;11041;50.854;20.580;2023-04-30T07:05:02;98855.88;;;7.05;100.00
21760;BME280;11041;50.854;20.580;2023-04-30T07:07:28;98848.59;;;6.95;100.00
21760;BME280;11041;50.854;20.580;2023-04-30T07:09:54;98854.28;;;6.99;100.00
21760;BME280;11041;50.854;20.580;2023-04-30T07:12:21;98867.53;;;7.11;100.00
21760;BME280;11041;50.854;20.580;2023-04-30T07:14:48;98868.66;;;7.10;100.00
21760;BME280;11041;50.854;20.580;2023-04-30T07:17:14;98845.00;;;7.00;100.00
21760;BME280;11041;50.854;20.580;2023-04-30T07:19:40;98851.72;;;7.08;100.00
21760;BME280;11041;50.854;20.580;2023-04-30T07:22:07;98871.75;;;7.27;100.00
21760;BME280;11041;50.854;20.580;2023-04-30T07:24:34;98877.63;;;7.39;100.00
21760;BME280;11041;50.854;20.580;2023-04-30T07:27:00;98862.53;;;7.42;100.00
21760;BME280;11041;50.854;20.580;2023-04-30T07:29:29;98864.59;;;7.55;100.00
21760;BME280;11041;50.854;20.580;2023-04-30T07:31:56;98864.66;;;7.69;100.00
21760;BME280;11041;50.854;20.580;2023-04-30T07:34:24;98864.09;;;7.72;100.00
21760;BME280;11041;50.854;20.580;2023-04-30T07:36:51;98885.25;;;7.85;100.00
21760;BME280;11041;50.854;20.580;2023-04-30T07:39:18;98900.72;;;7.95;100.00
21760;BME280;11041;50.854;20.580;2023-04-30T07:41:44;98889.16;;;7.79;100.00
21760;BME280;11041;50.854;20.580;2023-04-30T07:44:11;98899.28;;;7.79;100.00
21760;BME280;11041;50.854;20.580;2023-04-30T07:46:39;98906.75;;;7.73;100.00
21760;BME280;11041;50.854;20.580;2023-04-30T07:49:13;98902.97;;;7.69;100.00
21760;BME280;11041;50.854;20.580;2023-04-30T07:51:39;98910.06;;;7.70;100.00
21760;BME280;11041;50.854;20.580;2023-04-30T07:54:07;98886.69;;;7.59;100.00
21760;BME280;11041;50.854;20.580;2023-04-30T07:56:34;98924.16;;;7.82;100.00
21760;BME280;11041;50.854;20.580;2023-04-30T07:59:01;98915.72;;;7.98;100.00
21760;BME280;11041;50.854;20.580;2023-04-30T08:02:10;98917.38;;;7.99;100.00
21760;BME280;11041;50.854;20.580;2023-04-30T08:05:11;98916.56;;;8.17;100.00
21760;BME280;11041;50.854;20.580;2023-04-30T08:07:37;98908.66;;;8.35;100.00
21760;BME280;11041;50.854;20.580;2023-04-30T08:10:06;98916.72;;;8.64;98.03
21760;BME280;11041;50.854;20.580;2023-04-30T08:12:37;98909.59;;;8.63;95.72
21760;BME280;11041;50.854;20.580;2023-04-30T08:15:06;98892.66;;;8.61;94.44
21760;BME280;11041;50.854;20.580;2023-04-30T08:17:34;98929.56;;;8.82;94.37
21760;BME280;11041;50.854;20.580;2023-04-30T08:20:04;98930.47;;;8.78;93.58
21760;BME280;11041;50.854;20.580;2023-04-30T08:22:31;98922.69;;;8.66;94.00
21760;BME280;11041;50.854;20.580;2023-04-30T08:24:59;98911.81;;;8.61;95.38
21760;BME280;11041;50.854;20.580;2023-04-30T08:27:30;98927.38;;;8.98;95.49
21760;BME280;11041;50.854;20.580;2023-04-30T08:29:59;98929.19;;;9.22;93.92
21760;BME280;11041;50.854;20.580;2023-04-30T08:32:28;98927.47;;;9.39;92.99
21760;BME280;11041;50.854;20.580;2023-04-30T08:34:56;98918.56;;;9.48;88.30
21760;BME280;11041;50.854;20.580;2023-04-30T08:37:23;98909.91;;;9.54;87.90
21760;BME280;11041;50.854;20.580;2023-04-30T08:39:51;98934.72;;;9.77;86.66
21760;BME280;11041;50.854;20.580;2023-04-30T08:42:20;98921.19;;;9.67;87.85
21760;BME280;11041;50.854;20.580;2023-04-30T08:44:51;98916.94;;;9.60;82.43
21760;BME280;11041;50.854;20.580;2023-04-30T08:47:22;98915.00;;;9.61;84.63
21760;BME280;11041;50.854;20.580;2023-04-30T08:49:50;98935.53;;;9.77;84.74
21760;BME280;11041;50.854;20.580;2023-04-30T08:52:18;98956.06;;;9.94;85.28
21760;BME280;11041;50.854;20.580;2023-04-30T08:54:47;98933.81;;;9.81;83.80
21760;BME280;11041;50.854;20.580;2023-04-30T08:57:17;98953.06;;;10.18;82.32
21760;BME280;11041;50.854;20.580;2023-04-30T08:59:45;98931.31;;;10.08;80.18
21760;BME280;11041;50.854;20.580;2023-04-30T09:02:12;98950.63;;;10.44;80.90
21760;BME280;11041;50.854;20.580;2023-04-30T09:04:40;98947.50;;;10.59;79.26
21760;BME280;11041;50.854;20.580;2023-04-30T09:07:08;98945.56;;;10.60;77.83
21760;BME280;11041;50.854;20.580;2023-04-30T09:09:39;98970.25;;;10.74;77.46
21760;BME280;11041;50.854;20.580;2023-04-30T09:12:15;98941.00;;;10.55;74.99
21760;BME280;11041;50.854;20.580;2023-04-30T09:15:05;98961.34;;;10.68;75.99
21760;BME280;11041;50.854;20.580;2023-04-30T09:17:33;98965.91;;;10.73;74.53
21760;BME280;11041;50.854;20.580;2023-04-30T09:20:11;98972.47;;;10.85;74.22
21760;BME280;11041;50.854;20.580;2023-04-30T09:22:41;98958.00;;;10.80;72.62
21760;BME280;11041;50.854;20.580;2023-04-30T09:25:09;98948.44;;;10.77;72.92
21760;BME280;11041;50.854;20.580;2023-04-30T09:27:36;98975.34;;;10.80;72.55
21760;BME280;11041;50.854;20.580;2023-04-30T09:30:03;98967.13;;;10.66;71.22
21760;BME280;11041;50.854;20.580;2023-04-30T09:32:30;98960.13;;;10.60;72.93
21760;BME280;11041;50.854;20.580;2023-04-30T09:34:57;98941.81;;;10.56;70.90
21760;BME280;11041;50.854;20.580;2023-04-30T09:37:37;98922.28;;;10.57;71.03
21760;BME280;11041;50.854;20.580;2023-04-30T09:40:04;98962.47;;;11.12;69.19
21760;BME280;11041;50.854;20.580;2023-04-30T09:42:31;98924.97;;;11.16;68.41
21760;BME280;11041;50.854;20.580;2023-04-30T09:44:58;98939.44;;;11.30;68.27
21760;BME280;11041;50.854;20.580;2023-04-30T09:47:29;98941.84;;;11.32;66.68
21760;BME280;11041;50.854;20.580;2023-04-30T09:49:59;98934.19;;;11.20;66.36
21760;BME280;11041;50.854;20.580;2023-04-30T09:52:25;98957.56;;;11.32;66.77
21760;BME280;11041;50.854;20.580;2023-04-30T09:54:52;98948.16;;;11.33;64.77
21760;BME280;11041;50.854;20.580;2023-04-30T09:57:22;98923.19;;;11.20;64.45
21760;BME280;11041;50.854;20.580;2023-04-30T09:59:52;98949.94;;;11.28;65.05
21760;BME280;11041;50.854;20.580;2023-04-30T10:02:19;98944.44;;;11.28;64.08
21760;BME280;11041;50.854;20.580;2023-04-30T10:04:55;98930.91;;;11.41;63.18
21760;BME280;11041;50.854;20.580;2023-04-30T10:07:30;98921.56;;;11.50;64.37
21760;BME280;11041;50.854;20.580;2023-04-30T10:10:08;98908.41;;;11.39;62.39
21760;BME280;11041;50.854;20.580;2023-04-30T10:12:50;98942.41;;;11.43;61.99
21760;BME280;11041;50.854;20.580;2023-04-30T10:18:01;98922.50;;;11.46;61.38
21760;BME280;11041;50.854;20.580;2023-04-30T10:20:34;98937.94;;;11.56;62.11
21760;BME280;11041;50.854;20.580;2023-04-30T10:23:02;98942.50;;;11.60;58.70
21760;BME280;11041;50.854;20.580;2023-04-30T10:25:30;98927.88;;;11.51;59.61
21760;BME280;11041;50.854;20.580;2023-04-30T10:27:57;98927.44;;;11.66;58.67
21760;BME280;11041;50.854;20.580;2023-04-30T10:30:25;98938.53;;;11.84;57.86
21760;BME280;11041;50.854;20.580;2023-04-30T10:38:30;98938.94;;;12.08;55.18
21760;BME280;11041;50.854;20.580;2023-04-30T10:41:04;98944.31;;;12.13;52.98
21760;BME280;11041;50.854;20.580;2023-04-30T10:43:32;98913.81;;;12.01;53.78
21760;BME280;11041;50.854;20.580;2023-04-30T10:46:01;98916.75;;;12.13;52.04
21760;BME280;11041;50.854;20.580;2023-04-30T10:48:33;98915.81;;;12.18;50.63
21760;BME280;11041;50.854;20.580;2023-04-30T10:51:01;98923.75;;;12.28;52.05
21760;BME280;11041;50.854;20.580;2023-04-30T10:53:31;98914.84;;;12.31;51.57
21760;BME280;11041;50.854;20.580;2023-04-30T10:56:03;98945.16;;;12.57;51.77
21760;BME280;11041;50.854;20.580;2023-04-30T10:58:35;98930.94;;;12.55;51.97
21760;BME280;11041;50.854;20.580;2023-04-30T11:01:15;98906.75;;;12.44;50.94
21760;BME280;11041;50.854;20.580;2023-04-30T11:04:04;98940.81;;;12.65;48.02
21760;BME280;11041;50.854;20.580;2023-04-30T11:07:09;98938.34;;;12.81;45.45
21760;BME280;11041;50.854;20.580;2023-04-30T11:09:41;98916.81;;;12.66;46.65
21760;BME280;11041;50.854;20.580;2023-04-30T11:12:20;98929.94;;;12.77;44.49
21760;BME280;11041;50.854;20.580;2023-04-30T11:15:16;98935.25;;;12.91;43.41
21760;BME280;11041;50.854;20.580;2023-04-30T11:17:44;98910.16;;;12.75;43.99
21760;BME280;11041;50.854;20.580;2023-04-30T11:20:15;98920.84;;;12.86;46.54
21760;BME280;11041;50.854;20.580;2023-04-30T11:22:45;98925.84;;;13.10;45.71
21760;BME280;11041;50.854;20.580;2023-04-30T11:25:18;98934.09;;;13.18;45.25
21760;BME280;11041;50.854;20.580;2023-04-30T11:27:45;98940.09;;;13.38;45.14
21760;BME280;11041;50.854;20.580;2023-04-30T11:30:16;98939.28;;;13.29;44.11
21760;BME280;11041;50.854;20.580;2023-04-30T11:32:46;98945.13;;;13.36;41.84
21760;BME280;11041;50.854;20.580;2023-04-30T11:35:17;98921.59;;;13.21;44.30
21760;BME280;11041;50.854;20.580;2023-04-30T11:37:47;98926.94;;;13.26;45.53
21760;BME280;11041;50.854;20.580;2023-04-30T11:40:14;98944.28;;;13.44;42.99
21760;BME280;11041;50.854;20.580;2023-04-30T11:42:43;98959.16;;;13.69;42.78
21760;BME280;11041;50.854;20.580;2023-04-30T11:45:12;98948.03;;;13.87;44.14
21760;BME280;11041;50.854;20.580;2023-04-30T11:47:50;98937.53;;;14.01;43.03
21760;BME280;11041;50.854;20.580;2023-04-30T11:50:20;98961.25;;;14.02;41.44
21760;BME280;11041;50.854;20.580;2023-04-30T11:52:54;98933.31;;;13.74;40.87
21760;BME280;11041;50.854;20.580;2023-04-30T11:55:25;98936.34;;;13.81;41.62
21760;BME280;11041;50.854;20.580;2023-04-30T11:57:56;98956.44;;;13.90;40.25
21760;BME280;11041;50.854;20.580;2023-04-30T12:00:29;98938.56;;;13.88;41.75
21760;BME280;11041;50.854;20.580;2023-04-30T12:02:59;98961.16;;;13.90;40.22
21760;BME280;11041;50.854;20.580;2023-04-30T12:05:26;98943.09;;;13.62;39.71
21760;BME280;11041;50.854;20.580;2023-04-30T12:08:01;98922.88;;;13.32;39.43
21760;BME280;11041;50.854;20.580;2023-04-30T12:10:38;98956.88;;;13.62;42.34
21760;BME280;11041;50.854;20.580;2023-04-30T12:13:04;98951.38;;;14.01;41.19
21760;BME280;11041;50.854;20.580;2023-04-30T12:15:31;98943.78;;;14.19;38.15
21760;BME280;11041;50.854;20.580;2023-04-30T12:18:10;98932.31;;;14.08;37.85
21760;BME280;11041;50.854;20.580;2023-04-30T12:20:38;98943.44;;;14.20;38.51
21760;BME280;11041;50.854;20.580;2023-04-30T12:23:07;98944.59;;;14.19;39.88
21760;BME280;11041;50.854;20.580;2023-04-30T12:25:41;98939.63;;;14.34;38.19
21760;BME280;11041;50.854;20.580;2023-04-30T12:28:11;98957.09;;;14.46;36.94
21760;BME280;11041;50.854;20.580;2023-04-30T12:30:37;98955.03;;;14.43;38.27
21760;BME280;11041;50.854;20.580;2023-04-30T12:33:04;98934.56;;;14.36;38.60
21760;BME280;11041;50.854;20.580;2023-04-30T12:35:31;98924.78;;;14.17;38.81
21760;BME280;11041;50.854;20.580;2023-04-30T12:38:06;98941.25;;;14.35;40.27
21760;BME280;11041;50.854;20.580;2023-04-30T12:40:34;98932.41;;;14.20;37.51
21760;BME280;11041;50.854;20.580;2023-04-30T12:43:06;98937.63;;;14.13;38.09
21760;BME280;11041;50.854;20.580;2023-04-30T12:45:53;98941.25;;;14.35;37.94
21760;BME280;11041;50.854;20.580;2023-04-30T12:48:23;98929.44;;;14.25;37.49
21760;BME280;11041;50.854;20.580;2023-04-30T12:50:58;98948.22;;;14.41;35.90
21760;BME280;11041;50.854;20.580;2023-04-30T12:53:25;98925.88;;;14.46;36.13
21760;BME280;11041;50.854;20.580;2023-04-30T12:56:14;98946.53;;;14.69;36.45
21760;BME280;11041;50.854;20.580;2023-04-30T12:58:46;98946.81;;;14.77;36.48
21760;BME280;11041;50.854;20.580;2023-04-30T13:01:20;98948.84;;;14.67;34.17
21760;BME280;11041;50.854;20.580;2023-04-30T13:03:50;98939.72;;;14.67;34.19
21760;BME280;11041;50.854;20.580;2023-04-30T13:06:20;98935.28;;;14.75;33.96
21760;BME280;11041;50.854;20.580;2023-04-30T13:08:47;98942.75;;;14.74;33.72
21760;BME280;11041;50.854;20.580;2023-04-30T13:11:14;98943.59;;;14.54;34.45
21760;BME280;11041;50.854;20.580;2023-04-30T13:13:40;98947.31;;;14.49;34.89
21760;BME280;11041;50.854;20.580;2023-04-30T13:16:07;98936.69;;;14.60;34.37
21760;BME280;11041;50.854;20.580;2023-04-30T13:18:34;98930.28;;;14.68;34.79
21760;BME280;11041;50.854;20.580;2023-04-30T13:21:00;98951.91;;;15.08;34.53
21760;BME280;11041;50.854;20.580;2023-04-30T13:23:27;98948.44;;;14.99;33.27
21760;BME280;11041;50.854;20.580;2023-04-30T13:25:53;98944.91;;;14.89;31.26
21760;BME280;11041;50.854;20.580;2023-04-30T13:28:20;98925.03;;;14.54;32.04
21760;BME280;11041;50.854;20.580;2023-04-30T13:30:46;98948.28;;;14.53;32.24
21760;BME280;11041;50.854;20.580;2023-04-30T13:33:13;98951.63;;;14.38;32.28
21760;BME280;11041;50.854;20.580;2023-04-30T13:35:40;98928.44;;;14.30;32.11